createdAt,value
2022-08-05T00:00:16.593Z,3.22
2022-08-05T00:02:51.577Z,3.08
2022-08-05T00:06:01.636Z,2.67
2022-08-05T00:08:19.784Z,2.70
2022-08-05T00:11:00.616Z,2.83
2022-08-05T00:13:38.954Z,2.25
2022-08-05T00:16:11.001Z,2.45
2022-08-05T00:18:49.392Z,2.47
2022-08-05T00:21:18.609Z,2.20
2022-08-05T00:23:53.623Z,2.55
2022-08-05T00:26:34.509Z,2.40
2022-08-05T00:29:01.612Z,1.70
2022-08-05T00:31:41.447Z,1.85
2022-08-05T00:34:53.219Z,2.13
2022-08-05T00:37:09.928Z,2.00
2022-08-05T00:39:57.325Z,1.98
2022-08-05T00:42:32.502Z,2.28
2022-08-05T00:45:00.544Z,1.98
2022-08-05T00:47:52.912Z,1.70
2022-08-05T00:50:15.070Z,1.50
2022-08-05T00:52:42.262Z,1.50
2022-08-05T00:55:12.662Z,1.80
2022-08-05T00:57:55.544Z,1.73
2022-08-05T01:00:29.416Z,2.08
2022-08-05T01:02:57.988Z,1.85
2022-08-05T01:05:27.559Z,2.30
2022-08-05T01:08:40.454Z,2.00
2022-08-05T01:11:22.464Z,1.88
2022-08-05T01:14:03.120Z,1.75
2022-08-05T01:16:48.753Z,1.80
2022-08-05T01:19:22.303Z,1.70
2022-08-05T01:22:24.177Z,1.63
2022-08-05T01:25:13.666Z,1.95
2022-08-05T01:28:39.290Z,2.10
2022-08-05T01:31:22.920Z,1.67
2022-08-05T01:34:12.288Z,1.70
2022-08-05T01:36:47.649Z,1.98
2022-08-05T01:39:46.750Z,1.75
2022-08-05T01:42:06.367Z,2.30
2022-08-05T01:44:38.828Z,1.75
2022-08-05T01:47:09.599Z,1.80
2022-08-05T01:50:00.580Z,2.17
2022-08-05T01:52:27.992Z,1.80
2022-08-05T01:55:04.397Z,2.00
2022-08-05T01:58:11.971Z,1.75
2022-08-05T02:00:30.375Z,1.73
2022-08-05T02:05:34.334Z,1.75
2022-08-05T02:08:05.858Z,1.92
2022-08-05T02:10:43.139Z,2.33
2022-08-05T02:13:16.582Z,2.05
2022-08-05T02:15:46.550Z,1.73
2022-08-05T02:18:34.778Z,2.25
2022-08-05T02:21:14.633Z,2.28
2022-08-05T02:23:44.883Z,1.92
2022-08-05T02:26:19.056Z,2.45
2022-08-05T02:28:50.480Z,1.98
2022-08-05T02:31:28.448Z,2.05
2022-08-05T02:36:34.059Z,1.85
2022-08-05T02:39:08.610Z,2.28
2022-08-05T02:41:58.015Z,2.22
2022-08-05T02:44:27.020Z,2.20
2022-08-05T02:46:59.854Z,2.40
2022-08-05T02:49:41.659Z,2.10
2022-08-05T02:52:29.918Z,2.00
2022-08-05T02:55:01.808Z,2.28
2022-08-05T02:58:12.114Z,1.80
2022-08-05T03:00:21.347Z,1.90
2022-08-05T03:02:49.439Z,2.08
2022-08-05T03:05:21.948Z,2.17
2022-08-05T03:08:08.769Z,1.98
2022-08-05T03:10:36.813Z,2.17
2022-08-05T03:13:16.869Z,2.00
2022-08-05T03:15:48.116Z,1.98
2022-08-05T03:18:18.974Z,2.05
2022-08-05T03:20:57.050Z,2.25
2022-08-05T03:23:25.204Z,2.40
2022-08-05T03:26:04.982Z,2.03
2022-08-05T03:28:40.231Z,1.90
2022-08-05T03:31:08.830Z,2.25
2022-08-05T03:33:50.832Z,1.80
2022-08-05T03:36:28.014Z,2.00
2022-08-05T03:38:58.112Z,2.17
2022-08-05T03:41:25.474Z,2.60
2022-08-05T03:44:11.850Z,2.40
2022-08-05T03:46:39.203Z,2.22
2022-08-05T03:49:06.635Z,2.40
2022-08-05T03:52:37.445Z,1.90
2022-08-05T03:55:53.476Z,2.25
2022-08-05T03:57:41.538Z,2.10
2022-08-05T04:02:52.014Z,2.60
2022-08-05T04:05:25.882Z,2.63
2022-08-05T04:07:58.739Z,2.30
2022-08-05T04:10:33.329Z,2.03
2022-08-05T04:13:07.542Z,2.80
2022-08-05T04:15:36.548Z,2.20
2022-08-05T04:18:07.355Z,2.70
2022-08-05T04:20:36.654Z,2.50
2022-08-05T04:23:04.062Z,2.70
2022-08-05T04:25:57.404Z,3.22
2022-08-05T04:28:28.566Z,2.70
2022-08-05T04:30:58.881Z,2.92
2022-08-05T04:34:18.010Z,3.10
2022-08-05T04:36:45.144Z,2.67
2022-08-05T04:39:03.754Z,2.60
2022-08-05T04:41:37.634Z,3.15
2022-08-05T04:44:08.814Z,2.72
2022-08-05T04:46:38.375Z,3.00
2022-08-05T04:49:12.364Z,3.10
2022-08-05T04:51:45.068Z,2.72
2022-08-05T04:54:14.548Z,2.83
2022-08-05T04:56:42.036Z,3.05
2022-08-05T04:59:21.607Z,3.00
2022-08-05T05:02:07.230Z,2.40
2022-08-05T05:04:38.330Z,2.80
2022-08-05T05:07:11.608Z,2.72
2022-08-05T05:09:43.116Z,2.50
2022-08-05T05:12:11.863Z,2.80
2022-08-05T05:14:49.100Z,2.70
2022-08-05T05:17:23.415Z,2.95
2022-08-05T05:22:23.550Z,3.17
2022-08-05T05:24:58.454Z,2.58
2022-08-05T05:27:45.867Z,2.58
2022-08-05T05:30:29.702Z,3.13
2022-08-05T05:33:03.872Z,3.20
2022-08-05T05:35:47.998Z,3.40
2022-08-05T05:38:22.780Z,3.25
2022-08-05T05:40:55.972Z,2.90
2022-08-05T05:43:56.430Z,3.30
2022-08-05T05:46:17.736Z,3.28
2022-08-05T05:48:48.294Z,3.00
2022-08-05T05:51:20.953Z,2.97
2022-08-05T05:53:57.503Z,3.00
2022-08-05T05:56:33.255Z,2.90
2022-08-05T05:59:08.192Z,2.80
2022-08-05T06:01:38.968Z,2.90
2022-08-05T06:04:11.483Z,3.28
2022-08-05T06:06:42.732Z,3.20
2022-08-05T06:09:17.564Z,2.78
2022-08-05T06:12:01.386Z,2.90
2022-08-05T06:14:33.314Z,2.97
2022-08-05T06:17:21.974Z,2.70
2022-08-05T06:19:56.947Z,3.00
2022-08-05T06:22:29.057Z,3.28
2022-08-05T06:24:56.607Z,2.75
2022-08-05T06:28:09.241Z,2.97
2022-08-05T06:30:17.933Z,2.45
2022-08-05T06:32:50.825Z,2.80
2022-08-05T06:36:03.463Z,2.60
2022-08-05T06:38:11.128Z,2.30
2022-08-05T06:40:44.337Z,2.38
2022-08-05T06:43:59.115Z,2.10
2022-08-05T06:46:07.036Z,2.30
2022-08-05T06:48:54.786Z,1.75
2022-08-05T06:51:30.236Z,1.95
2022-08-05T06:54:03.051Z,2.15
2022-08-05T06:56:34.265Z,1.67
2022-08-05T06:59:09.562Z,1.98
2022-08-05T07:01:41.540Z,1.80
2022-08-05T07:04:10.004Z,1.80
2022-08-05T07:06:37.224Z,1.95
2022-08-05T07:09:04.784Z,2.22
2022-08-05T07:11:37.086Z,2.28
2022-08-05T07:14:29.368Z,2.28
2022-08-05T07:17:58.200Z,2.20
2022-08-05T07:22:41.959Z,1.83
2022-08-05T07:25:54.472Z,1.90
2022-08-05T07:28:03.902Z,2.00
2022-08-05T07:30:38.517Z,1.58
2022-08-05T07:33:15.602Z,1.60
2022-08-05T07:36:04.594Z,1.40
2022-08-05T07:38:42.835Z,2.03
2022-08-05T07:42:08.573Z,1.67
2022-08-05T07:44:05.920Z,2.38
2022-08-05T07:46:41.769Z,2.05
2022-08-05T07:49:15.423Z,1.95
2022-08-05T07:51:53.154Z,2.22
2022-08-05T07:54:30.773Z,2.35
2022-08-05T07:57:14.828Z,2.00
2022-08-05T07:59:48.934Z,2.00
2022-08-05T08:02:17.785Z,2.42
2022-08-05T08:04:47.285Z,1.95
2022-08-05T08:07:20.877Z,2.40
2022-08-05T08:09:52.549Z,2.83
2022-08-05T08:12:33.508Z,3.00
2022-08-05T08:15:14.310Z,3.88
2022-08-05T08:17:50.571Z,2.80
2022-08-05T08:20:59.705Z,3.53
2022-08-05T08:24:02.093Z,3.00
2022-08-05T08:25:59.898Z,3.38
2022-08-05T08:28:37.215Z,3.03
2022-08-05T08:31:17.625Z,3.45
2022-08-05T08:33:46.051Z,4.20
2022-08-05T08:39:07.200Z,3.45
2022-08-05T08:41:51.382Z,3.35
2022-08-05T08:45:16.689Z,2.70
2022-08-05T08:47:47.198Z,2.20
2022-08-05T08:50:30.478Z,2.33
2022-08-05T08:53:11.927Z,2.13
2022-08-05T08:56:03.980Z,1.98
2022-08-05T08:58:43.801Z,1.63
2022-08-05T09:01:17.264Z,2.38
2022-08-05T09:03:55.071Z,1.83
2022-08-05T09:06:29.578Z,1.77
2022-08-05T09:09:02.385Z,1.93
2022-08-05T09:11:52.824Z,1.80
2022-08-05T09:14:56.898Z,1.90
2022-08-05T09:17:09.380Z,2.08
2022-08-05T09:20:01.561Z,2.28
2022-08-05T09:22:31.810Z,1.85
2022-08-05T09:25:01.442Z,2.53
2022-08-05T09:28:05.220Z,1.95
2022-08-05T09:30:25.594Z,2.60
2022-08-05T09:32:53.621Z,2.17
2022-08-05T09:35:27.151Z,2.45
2022-08-05T09:38:17.510Z,2.28
2022-08-05T09:40:51.863Z,2.30
2022-08-05T09:43:40.738Z,2.28
2022-08-05T09:46:28.427Z,2.65
2022-08-05T09:49:08.348Z,2.55
2022-08-05T09:51:48.796Z,2.50
2022-08-05T09:54:21.248Z,2.50
2022-08-05T09:56:57.683Z,2.63
2022-08-05T09:59:28.809Z,2.13
2022-08-05T10:02:02.227Z,2.00
2022-08-05T10:04:38.588Z,2.22
2022-08-05T10:07:20.162Z,2.80
2022-08-05T10:10:14.681Z,2.50
2022-08-05T10:12:59.819Z,2.45
2022-08-05T10:15:29.839Z,2.28
2022-08-05T10:18:32.167Z,2.20
2022-08-05T10:21:06.381Z,2.33
2022-08-05T10:23:59.870Z,2.80
2022-08-05T10:26:32.683Z,2.60
2022-08-05T10:29:01.127Z,2.75
2022-08-05T10:32:54.724Z,2.90
2022-08-05T10:34:16.927Z,2.50
2022-08-05T10:36:45.455Z,2.95
2022-08-05T10:39:25.118Z,2.15
2022-08-05T10:42:32.436Z,2.47
2022-08-05T10:45:09.651Z,1.90
2022-08-05T10:48:29.835Z,1.77
2022-08-05T10:51:22.139Z,1.83
2022-08-05T10:54:01.973Z,2.05
2022-08-05T10:56:47.368Z,1.70
2022-08-05T11:00:02.043Z,1.90
2022-08-05T11:02:38.326Z,1.60
2022-08-05T11:05:29.223Z,1.70
2022-08-05T11:08:12.728Z,1.70
2022-08-05T11:11:00.164Z,1.83
2022-08-05T11:13:40.647Z,1.60
2022-08-05T11:16:47.433Z,1.85
2022-08-05T11:20:10.473Z,1.70
2022-08-05T11:22:39.724Z,1.40
2022-08-05T11:26:05.453Z,1.60
2022-08-05T11:28:19.157Z,2.28
2022-08-05T11:30:55.522Z,1.95
2022-08-05T11:33:44.181Z,2.13
2022-08-05T11:36:34.517Z,1.77
2022-08-05T11:39:09.317Z,1.95
2022-08-05T11:42:00.781Z,2.20
2022-08-05T11:44:52.780Z,2.40
2022-08-05T11:47:48.587Z,2.25
2022-08-05T11:50:14.092Z,2.15
2022-08-05T11:52:43.967Z,1.50
2022-08-05T11:55:13.480Z,1.50
2022-08-05T11:58:10.936Z,1.40
2022-08-05T12:00:38.180Z,1.60
2022-08-05T12:03:29.160Z,1.60
2022-08-05T12:06:06.172Z,1.58
2022-08-05T12:08:50.878Z,2.00
2022-08-05T12:11:40.134Z,2.90
2022-08-05T12:14:08.578Z,2.65
2022-08-05T12:16:39.893Z,2.72
2022-08-05T12:19:10.853Z,2.33
2022-08-05T12:21:58.032Z,2.83
2022-08-05T12:24:25.376Z,3.20
2022-08-05T12:26:53.962Z,3.25
2022-08-05T12:29:23.723Z,2.85
2022-08-05T12:31:57.283Z,2.80
2022-08-05T12:34:30.036Z,2.80
2022-08-05T12:37:01.495Z,2.28
2022-08-05T12:39:37.053Z,2.13
2022-08-05T12:42:16.436Z,2.60
2022-08-05T12:44:46.022Z,2.00
2022-08-05T12:47:30.761Z,2.05
2022-08-05T12:50:03.316Z,1.37
2022-08-05T12:52:39.060Z,1.30
2022-08-05T12:55:22.430Z,1.40
2022-08-05T12:58:49.097Z,1.80
2022-08-05T13:02:01.011Z,1.30
2022-08-05T13:03:32.339Z,1.40
2022-08-05T13:06:06.682Z,1.67
2022-08-05T13:08:38.382Z,2.15
2022-08-05T13:11:07.969Z,1.80
2022-08-05T13:14:05.103Z,1.70
2022-08-05T13:16:27.861Z,2.10
2022-08-05T13:18:59.646Z,2.00
2022-08-05T13:21:28.350Z,1.90
2022-08-05T13:24:08.784Z,1.98
2022-08-05T13:26:36.643Z,1.70
2022-08-05T13:29:05.203Z,1.90
2022-08-05T13:31:33.835Z,1.95
2022-08-05T13:34:25.985Z,1.90
2022-08-05T13:36:54.196Z,1.65
2022-08-05T13:40:13.176Z,1.77
2022-08-05T13:42:14.328Z,1.95
2022-08-05T13:44:46.318Z,2.33
2022-08-05T13:47:34.890Z,2.47
2022-08-05T13:50:04.678Z,2.20
2022-08-05T13:52:35.518Z,2.38
2022-08-05T13:55:07.709Z,2.40
2022-08-05T13:57:51.331Z,2.65
2022-08-05T14:00:27.500Z,2.67
2022-08-05T14:02:57.731Z,2.10
2022-08-05T14:05:47.892Z,2.00
2022-08-05T14:08:20.773Z,2.33
2022-08-05T14:10:59.844Z,2.42
2022-08-05T14:13:41.911Z,2.13
2022-08-05T14:16:11.427Z,2.30
2022-08-05T14:18:38.914Z,2.10
2022-08-05T14:22:08.511Z,2.60
2022-08-05T14:23:53.372Z,2.10
2022-08-05T14:26:35.674Z,2.10
2022-08-05T14:29:16.244Z,2.38
2022-08-05T14:32:02.247Z,2.50
2022-08-05T14:34:35.227Z,2.50
2022-08-05T14:37:04.688Z,7.45
2022-08-05T14:39:50.029Z,5.22
2022-08-05T14:42:22.213Z,3.28
2022-08-05T14:44:50.016Z,3.35
2022-08-05T14:47:17.353Z,2.70
2022-08-05T14:50:17.412Z,2.88
2022-08-05T14:52:58.531Z,3.28
2022-08-05T14:55:38.739Z,2.80
2022-08-05T14:58:11.049Z,3.42
2022-08-05T15:00:58.374Z,2.90
2022-08-05T15:03:33.709Z,3.40
2022-08-05T15:06:08.031Z,3.60
2022-08-05T15:08:57.946Z,3.00
2022-08-05T15:11:51.539Z,3.60
2022-08-05T15:14:34.290Z,3.22
2022-08-05T15:17:14.632Z,3.85
2022-08-05T15:19:53.030Z,3.90
2022-08-05T15:22:22.454Z,1.75
2022-08-05T15:24:55.761Z,1.40
2022-08-05T15:27:25.591Z,1.20
2022-08-05T15:29:54.271Z,1.25
2022-08-05T15:32:27.231Z,1.20
2022-08-05T15:34:57.253Z,1.20
2022-08-05T15:38:31.820Z,1.10
2022-08-05T15:41:02.881Z,1.17
2022-08-05T15:43:10.861Z,1.25
2022-08-05T15:45:47.459Z,0.90
2022-08-05T15:48:15.321Z,1.15
2022-08-05T15:50:43.851Z,1.05
2022-08-05T15:53:15.798Z,0.90
2022-08-05T15:56:01.218Z,1.15
2022-08-05T15:58:35.711Z,1.00
2022-08-05T16:01:16.203Z,0.82
2022-08-05T16:03:48.745Z,0.80
2022-08-05T16:08:51.185Z,0.70
2022-08-05T16:11:42.321Z,0.90
2022-08-05T16:14:09.051Z,0.90
2022-08-05T16:16:36.669Z,0.82
2022-08-05T16:19:04.289Z,0.80
2022-08-05T16:21:58.380Z,0.90
2022-08-05T16:24:41.626Z,1.10
2022-08-05T16:27:07.590Z,0.70
2022-08-05T16:29:37.367Z,0.60
2022-08-05T16:32:09.512Z,0.60
2022-08-05T16:34:41.663Z,0.70
2022-08-05T16:38:01.714Z,0.65
2022-08-05T16:40:05.992Z,0.50
2022-08-05T16:42:35.386Z,0.70
2022-08-05T16:46:02.891Z,0.60
2022-08-05T16:47:53.675Z,0.50
2022-08-05T16:50:22.967Z,0.65
2022-08-05T16:52:50.065Z,0.60
2022-08-05T16:55:17.632Z,0.70
2022-08-05T16:58:00.088Z,0.70
2022-08-05T17:00:34.576Z,0.60
2022-08-05T17:03:03.696Z,0.75
2022-08-05T17:05:37.054Z,0.70
2022-08-05T17:08:14.068Z,0.60
2022-08-05T17:11:02.164Z,0.55
2022-08-05T17:13:37.147Z,0.30
2022-08-05T17:16:28.050Z,0.70
2022-08-05T17:18:56.212Z,0.75
2022-08-05T17:21:23.585Z,0.52
2022-08-05T17:24:04.899Z,0.50
2022-08-05T17:26:39.115Z,0.68
2022-08-05T17:29:10.288Z,1.27
2022-08-05T17:31:56.848Z,0.60
2022-08-05T17:34:30.100Z,0.68
2022-08-05T17:37:00.276Z,0.60
2022-08-05T17:39:33.413Z,1.10
2022-08-05T17:42:17.352Z,0.85
2022-08-05T17:44:50.222Z,0.63
2022-08-05T17:47:22.205Z,0.68
2022-08-05T17:49:59.943Z,0.40
2022-08-05T17:52:35.205Z,0.68
2022-08-05T17:55:21.453Z,0.55
2022-08-05T17:57:50.340Z,0.98
2022-08-05T18:00:44.307Z,0.47
2022-08-05T18:05:41.276Z,0.57
2022-08-05T18:08:09.759Z,0.47
2022-08-05T18:10:37.429Z,0.57
2022-08-05T18:13:07.675Z,0.77
2022-08-05T18:15:40.076Z,0.50
2022-08-05T18:18:11.383Z,0.60
2022-08-05T18:20:38.882Z,0.40
2022-08-05T18:23:11.835Z,0.50
2022-08-05T18:25:44.964Z,0.60
2022-08-05T18:28:16.149Z,0.70
2022-08-05T18:30:45.658Z,0.60
2022-08-05T18:33:22.919Z,0.40
2022-08-05T18:36:04.026Z,0.73
2022-08-05T18:38:36.268Z,0.50
2022-08-05T18:41:59.519Z,0.43
2022-08-05T18:43:52.911Z,0.60
2022-08-05T18:46:20.676Z,0.50
2022-08-05T18:48:51.785Z,0.75
2022-08-05T18:52:04.402Z,0.50
2022-08-05T18:54:28.561Z,0.57
2022-08-05T18:57:00.980Z,0.40
2022-08-05T18:59:44.254Z,0.60
2022-08-05T19:02:36.519Z,0.63
2022-08-05T19:06:06.371Z,0.40
2022-08-05T19:07:55.226Z,0.55
2022-08-05T19:10:28.261Z,0.40
2022-08-05T19:12:58.524Z,0.40
2022-08-05T19:15:58.765Z,0.50
2022-08-05T19:18:21.802Z,0.55
2022-08-05T19:20:53.797Z,0.90
2022-08-05T19:24:03.904Z,0.82
2022-08-05T19:26:09.423Z,0.80
2022-08-05T19:28:42.119Z,0.73
2022-08-05T19:31:13.595Z,0.43
2022-08-05T19:33:48.412Z,0.70
2022-08-05T19:36:29.255Z,0.77
2022-08-05T19:39:00.518Z,0.63
2022-08-05T19:41:58.360Z,0.60
2022-08-05T19:44:18.669Z,0.70
2022-08-05T19:46:46.133Z,0.63
2022-08-05T19:49:17.209Z,0.90
2022-08-05T19:52:04.588Z,0.93
2022-08-05T19:54:34.082Z,0.90
2022-08-05T19:57:09.564Z,1.10
2022-08-05T19:59:55.268Z,0.80
2022-08-05T20:02:31.309Z,1.05
2022-08-05T20:04:59.808Z,1.05
2022-08-05T20:07:45.657Z,0.60
2022-08-05T20:10:16.971Z,0.50
2022-08-05T20:12:48.401Z,0.90
2022-08-05T20:15:22.916Z,0.77
2022-08-05T20:18:10.193Z,0.80
2022-08-05T20:20:55.296Z,0.60
2022-08-05T20:23:40.240Z,0.70
2022-08-05T20:26:15.843Z,0.80
2022-08-05T20:28:45.987Z,0.80
2022-08-05T20:31:16.568Z,0.90
2022-08-05T20:33:45.107Z,1.73
2022-08-05T20:36:14.352Z,2.38
2022-08-05T20:38:53.501Z,1.90
2022-08-05T20:41:26.837Z,1.48
2022-08-05T20:44:00.375Z,1.25
2022-08-05T20:46:33.686Z,1.05
2022-08-05T20:49:00.825Z,0.98
2022-08-05T20:51:29.720Z,1.10
2022-08-05T20:54:01.367Z,0.95
2022-08-05T20:56:32.994Z,1.05
2022-08-05T20:59:13.905Z,0.90
2022-08-05T21:01:47.002Z,1.27
2022-08-05T21:04:14.352Z,0.90
2022-08-05T21:06:45.132Z,1.20
2022-08-05T21:09:15.862Z,0.90
2022-08-05T21:12:07.661Z,0.85
2022-08-05T21:14:31.384Z,0.90
2022-08-05T21:17:05.390Z,0.90
2022-08-05T21:19:46.517Z,0.75
2022-08-05T21:22:23.258Z,0.70
2022-08-05T21:24:54.265Z,1.35
2022-08-05T21:27:25.007Z,0.98
2022-08-05T21:29:55.258Z,0.80
2022-08-05T21:32:27.805Z,0.93
2022-08-05T21:35:09.045Z,0.98
2022-08-05T21:37:47.165Z,1.02
2022-08-05T21:40:20.866Z,0.90
2022-08-05T21:42:48.276Z,0.85
2022-08-05T21:45:24.941Z,1.00
2022-08-05T21:48:08.227Z,1.00
2022-08-05T21:50:36.666Z,1.55
2022-08-05T21:53:16.676Z,1.00
2022-08-05T21:56:05.016Z,1.20
2022-08-05T21:58:32.759Z,0.93
2022-08-05T22:01:00.388Z,1.20
2022-08-05T22:03:48.313Z,1.20
2022-08-05T22:06:16.586Z,1.20
2022-08-05T22:08:52.216Z,1.25
2022-08-05T22:11:35.269Z,0.80
2022-08-05T22:14:18.239Z,1.10
2022-08-05T22:16:55.986Z,0.90
2022-08-05T22:20:01.836Z,1.20
2022-08-05T22:22:14.528Z,1.50
2022-08-05T22:25:01.296Z,1.35
2022-08-05T22:28:08.677Z,1.20
2022-08-05T22:30:32.444Z,1.00
2022-08-05T22:33:15.873Z,1.33
2022-08-05T22:35:48.855Z,1.00
2022-08-05T22:38:17.323Z,0.90
2022-08-05T22:40:49.629Z,1.15
2022-08-05T22:43:37.091Z,0.80
2022-08-05T22:46:12.266Z,1.00
2022-08-05T22:48:41.998Z,0.80
2022-08-05T22:51:16.077Z,0.90
2022-08-05T22:53:51.174Z,0.75
2022-08-05T22:56:30.223Z,1.20
2022-08-05T22:59:00.038Z,0.90
2022-08-05T23:01:50.902Z,0.80
2022-08-05T23:04:17.567Z,0.77
2022-08-05T23:06:44.636Z,0.82
2022-08-05T23:09:26.951Z,0.93
2022-08-05T23:12:02.112Z,0.82
2022-08-05T23:14:31.805Z,0.80
2022-08-05T23:17:24.598Z,0.60
2022-08-05T23:20:02.614Z,0.90
2022-08-05T23:22:31.093Z,1.00
2022-08-05T23:24:58.399Z,0.98
2022-08-05T23:27:31.172Z,0.70
2022-08-05T23:30:00.761Z,1.20
2022-08-05T23:32:28.349Z,1.00
2022-08-05T23:34:58.878Z,0.80
2022-08-05T23:37:26.692Z,0.73
2022-08-05T23:40:01.613Z,0.90
2022-08-05T23:42:37.232Z,1.52
2022-08-05T23:45:14.428Z,1.17
2022-08-05T23:47:47.763Z,1.00
2022-08-05T23:50:15.432Z,0.98
2022-08-05T23:52:50.502Z,0.98
2022-08-05T23:55:19.017Z,1.05
2022-08-05T23:57:48.964Z,1.10
